createdAt,value
2019-05-19T00:00:43.932Z,0.00
2019-05-19T00:01:43.944Z,0.00
2019-05-19T00:02:43.912Z,0.00
2019-05-19T00:03:43.900Z,0.00
2019-05-19T00:04:43.901Z,0.00
2019-05-19T00:05:43.879Z,0.00
2019-05-19T00:06:43.877Z,0.00
2019-05-19T00:07:43.863Z,0.00
2019-05-19T00:08:43.857Z,0.00
2019-05-19T00:09:43.845Z,0.00
2019-05-19T00:10:43.845Z,0.00
2019-05-19T00:11:43.816Z,0.00
2019-05-19T00:12:43.804Z,0.00
2019-05-19T00:13:43.794Z,0.00
2019-05-19T00:14:43.795Z,0.00
2019-05-19T00:15:43.817Z,0.00
2019-05-19T00:16:43.776Z,0.00
2019-05-19T00:17:43.755Z,0.00
2019-05-19T00:18:43.740Z,0.00
2019-05-19T00:19:43.742Z,0.00
2019-05-19T00:20:43.719Z,0.00
2019-05-19T00:21:43.709Z,0.00
2019-05-19T00:22:43.698Z,0.00
2019-05-19T00:23:43.686Z,0.00
2019-05-19T00:24:43.695Z,0.00
2019-05-19T00:25:43.668Z,0.00
2019-05-19T00:26:43.663Z,0.00
2019-05-19T00:27:43.649Z,0.00
2019-05-19T00:28:43.638Z,0.00
2019-05-19T00:29:43.683Z,0.00
2019-05-19T00:30:43.613Z,0.00
2019-05-19T00:31:43.615Z,0.00
2019-05-19T00:32:43.590Z,0.00
2019-05-19T00:33:43.580Z,0.00
2019-05-19T00:34:43.607Z,0.00
2019-05-19T00:35:43.565Z,0.00
2019-05-19T00:36:43.551Z,0.00
2019-05-19T00:37:43.537Z,0.00
2019-05-19T00:38:43.526Z,0.00
2019-05-19T00:39:43.522Z,0.00
2019-05-19T00:40:43.503Z,0.00
2019-05-19T00:41:43.511Z,0.00
2019-05-19T00:42:43.482Z,0.00
2019-05-19T00:43:43.470Z,0.00
2019-05-19T00:44:43.470Z,0.00
2019-05-19T00:45:43.450Z,0.00
2019-05-19T00:46:43.439Z,0.00
2019-05-19T00:47:43.428Z,0.00
2019-05-19T00:48:43.420Z,0.00
2019-05-19T00:49:43.415Z,0.00
2019-05-19T00:50:43.397Z,0.00
2019-05-19T00:51:43.386Z,0.00
2019-05-19T00:52:43.383Z,0.00
2019-05-19T00:53:43.371Z,0.00
2019-05-19T00:54:43.362Z,0.00
2019-05-19T00:55:43.342Z,0.00
2019-05-19T00:56:43.334Z,0.00
2019-05-19T00:57:43.324Z,0.00
2019-05-19T00:58:43.308Z,0.00
2019-05-19T00:59:43.316Z,0.00
2019-05-19T01:00:43.292Z,0.00
2019-05-19T01:01:43.293Z,0.00
2019-05-19T01:02:43.268Z,0.00
2019-05-19T01:03:43.255Z,0.00
2019-05-19T01:04:43.271Z,0.00
2019-05-19T01:05:43.239Z,0.00
2019-05-19T01:06:43.223Z,0.00
2019-05-19T01:07:43.213Z,0.00
2019-05-19T01:08:43.200Z,0.00
2019-05-19T01:09:43.222Z,0.00
2019-05-19T01:10:43.215Z,0.00
2019-05-19T01:11:43.167Z,0.00
2019-05-19T01:12:43.157Z,0.00
2019-05-19T01:13:43.146Z,0.00
2019-05-19T01:14:43.135Z,0.00
2019-05-19T01:15:43.136Z,0.00
2019-05-19T01:16:43.116Z,0.00
2019-05-19T01:17:43.104Z,0.00
2019-05-19T01:18:43.094Z,0.00
2019-05-19T01:19:55.335Z,0.00
2019-05-19T01:20:44.102Z,0.00
2019-05-19T01:21:43.075Z,0.00
2019-05-19T01:22:43.055Z,0.00
2019-05-19T01:23:43.042Z,0.00
2019-05-19T01:24:43.027Z,0.00
2019-05-19T01:25:43.025Z,0.00
2019-05-19T01:26:43.005Z,0.00
2019-05-19T01:27:42.995Z,0.00
2019-05-19T01:28:42.987Z,0.00
2019-05-19T01:29:42.979Z,0.00
2019-05-19T01:30:43.003Z,0.00
2019-05-19T01:31:42.951Z,0.00
2019-05-19T01:32:42.942Z,0.00
2019-05-19T01:33:42.942Z,0.00
2019-05-19T01:34:42.929Z,0.00
2019-05-19T01:35:42.922Z,0.00
2019-05-19T01:36:42.900Z,0.00
2019-05-19T01:37:42.894Z,0.00
2019-05-19T01:38:42.875Z,0.00
2019-05-19T01:39:42.864Z,0.00
2019-05-19T01:40:42.864Z,0.00
2019-05-19T01:41:42.845Z,0.00
2019-05-19T01:42:42.832Z,0.00
2019-05-19T01:43:42.822Z,0.00
2019-05-19T01:44:42.810Z,0.00
2019-05-19T01:45:42.816Z,0.00
2019-05-19T01:46:42.806Z,0.00
2019-05-19T01:47:42.780Z,0.00
2019-05-19T01:48:42.766Z,0.00
2019-05-19T01:49:42.756Z,0.00
2019-05-19T01:50:42.782Z,0.00
2019-05-19T01:51:42.739Z,0.00
2019-05-19T01:52:42.742Z,0.00
2019-05-19T01:53:42.715Z,0.00
2019-05-19T01:54:42.701Z,0.00
2019-05-19T01:55:42.699Z,0.00
2019-05-19T01:56:42.686Z,0.00
2019-05-19T01:57:42.675Z,0.00
2019-05-19T01:58:42.661Z,0.00
2019-05-19T01:59:42.654Z,0.00
2019-05-19T02:00:42.645Z,0.00
2019-05-19T02:01:42.633Z,0.00
2019-05-19T02:02:42.615Z,0.00
2019-05-19T02:03:42.605Z,0.00
2019-05-19T02:04:42.594Z,0.00
2019-05-19T02:05:42.590Z,0.00
2019-05-19T02:06:42.577Z,0.00
2019-05-19T02:07:42.568Z,0.00
2019-05-19T02:08:42.553Z,0.00
2019-05-19T02:09:42.635Z,0.00
2019-05-19T02:10:42.539Z,0.00
2019-05-19T02:11:42.526Z,0.00
2019-05-19T02:12:42.529Z,0.00
2019-05-19T02:13:42.495Z,0.00
2019-05-19T02:14:42.487Z,0.00
2019-05-19T02:15:42.515Z,0.00
2019-05-19T02:16:42.464Z,0.00
2019-05-19T02:17:42.454Z,0.00
2019-05-19T02:18:42.457Z,0.00
2019-05-19T02:19:42.433Z,0.00
2019-05-19T02:20:42.433Z,0.00
2019-05-19T02:21:42.473Z,0.00
2019-05-19T02:22:42.409Z,0.00
2019-05-19T02:23:42.387Z,0.00
2019-05-19T02:24:42.380Z,0.00
2019-05-19T02:25:42.377Z,0.00
2019-05-19T02:26:42.370Z,0.00
2019-05-19T02:27:42.363Z,0.00
2019-05-19T02:28:42.333Z,0.00
2019-05-19T02:29:42.328Z,0.00
2019-05-19T02:30:42.314Z,0.00
2019-05-19T02:31:42.312Z,0.00
2019-05-19T02:32:42.293Z,0.00
2019-05-19T02:33:42.281Z,0.00
2019-05-19T02:34:42.269Z,0.00
2019-05-19T02:35:42.259Z,0.00
2019-05-19T02:36:42.263Z,0.00
2019-05-19T02:37:42.238Z,0.00
2019-05-19T02:38:42.227Z,0.00
2019-05-19T02:39:42.214Z,0.00
2019-05-19T02:40:42.203Z,0.00
2019-05-19T02:41:42.203Z,0.00
2019-05-19T02:42:42.185Z,0.00
2019-05-19T02:43:42.172Z,0.00
2019-05-19T02:44:42.174Z,0.00
2019-05-19T02:45:42.150Z,0.00
2019-05-19T02:46:42.148Z,0.00
2019-05-19T02:47:42.129Z,0.00
2019-05-19T02:48:42.119Z,0.00
2019-05-19T02:49:42.104Z,0.00
2019-05-19T02:50:51.671Z,0.00
2019-05-19T02:51:43.097Z,0.00
2019-05-19T02:52:42.079Z,0.00
2019-05-19T02:53:42.081Z,5.62
2019-05-19T02:54:42.065Z,5.62
2019-05-19T02:55:42.042Z,5.62
2019-05-19T02:56:42.044Z,5.62
2019-05-19T02:57:42.021Z,5.62
2019-05-19T02:58:42.010Z,5.62
2019-05-19T02:59:41.998Z,11.25
2019-05-19T03:00:42.013Z,11.25
2019-05-19T03:01:41.990Z,11.25
2019-05-19T03:02:41.970Z,11.25
2019-05-19T03:03:41.954Z,11.25
2019-05-19T03:04:41.954Z,16.88
2019-05-19T03:05:41.932Z,16.88
2019-05-19T03:06:41.931Z,16.88
2019-05-19T03:07:41.923Z,16.88
2019-05-19T03:08:41.908Z,22.50
2019-05-19T03:09:41.891Z,22.50
2019-05-19T03:10:41.883Z,28.12
2019-05-19T03:11:41.877Z,28.12
2019-05-19T03:12:41.854Z,28.12
2019-05-19T03:13:41.845Z,33.75
2019-05-19T03:14:41.834Z,33.75
2019-05-19T03:15:41.822Z,33.75
2019-05-19T03:16:41.819Z,39.38
2019-05-19T03:17:41.810Z,39.38
2019-05-19T03:18:41.787Z,45.00
2019-05-19T03:19:41.782Z,45.00
2019-05-19T03:20:41.766Z,50.62
2019-05-19T03:21:41.763Z,50.62
2019-05-19T03:22:41.748Z,56.25
2019-05-19T03:23:41.734Z,56.25
2019-05-19T03:24:41.723Z,61.88
2019-05-19T03:25:44.215Z,67.50
2019-05-19T03:26:41.893Z,73.12
2019-05-19T03:27:41.691Z,78.75
2019-05-19T03:28:41.687Z,78.75
2019-05-19T03:29:41.669Z,84.38
2019-05-19T03:30:41.685Z,90.00
2019-05-19T03:31:41.648Z,101.25
2019-05-19T03:32:41.660Z,106.88
2019-05-19T03:33:41.654Z,112.50
2019-05-19T03:34:41.627Z,112.50
2019-05-19T03:35:41.604Z,129.38
2019-05-19T03:36:41.601Z,135.00
2019-05-19T03:37:41.592Z,157.50
2019-05-19T03:38:41.575Z,146.25
2019-05-19T03:39:41.559Z,163.12
2019-05-19T03:40:41.549Z,168.75
2019-05-19T03:41:41.539Z,202.50
2019-05-19T03:42:41.550Z,326.25
2019-05-19T03:43:41.518Z,309.38
2019-05-19T03:44:41.506Z,191.25
2019-05-19T03:45:41.495Z,174.38
2019-05-19T03:46:41.484Z,191.25
2019-05-19T03:47:41.482Z,208.12
2019-05-19T03:48:41.464Z,225.00
2019-05-19T03:49:41.452Z,382.50
2019-05-19T03:50:41.440Z,579.38
2019-05-19T03:51:41.429Z,691.88
2019-05-19T03:52:41.432Z,675.00
2019-05-19T03:53:41.411Z,455.62
2019-05-19T03:54:41.408Z,320.62
2019-05-19T03:55:41.402Z,416.25
2019-05-19T03:56:41.377Z,641.25
2019-05-19T03:57:41.374Z,798.75
2019-05-19T03:58:41.357Z,742.50
2019-05-19T03:59:41.341Z,793.12
2019-05-19T04:00:41.331Z,916.88
2019-05-19T04:01:41.319Z,798.75
2019-05-19T04:02:41.318Z,720.00
2019-05-19T04:03:41.356Z,793.12
2019-05-19T04:04:41.288Z,770.62
2019-05-19T04:05:41.277Z,928.12
2019-05-19T04:06:41.332Z,815.62
2019-05-19T04:07:41.281Z,956.25
2019-05-19T04:08:41.243Z,826.88
2019-05-19T04:09:41.230Z,776.25
2019-05-19T04:10:41.221Z,826.88
2019-05-19T04:11:41.210Z,894.38
2019-05-19T04:12:41.208Z,973.12
2019-05-19T04:13:41.191Z,1006.88
2019-05-19T04:14:41.178Z,995.62
2019-05-19T04:15:41.167Z,1035.00
2019-05-19T04:16:41.157Z,1198.12
2019-05-19T04:17:41.158Z,1215.00
2019-05-19T04:18:41.134Z,1051.88
2019-05-19T04:19:41.121Z,1102.50
2019-05-19T04:20:41.115Z,984.38
2019-05-19T04:21:48.796Z,877.50
2019-05-19T04:22:42.101Z,995.62
2019-05-19T04:23:41.081Z,1001.25
2019-05-19T04:24:41.078Z,900.00
2019-05-19T04:25:41.060Z,1074.38
2019-05-19T04:26:41.056Z,1175.62
2019-05-19T04:27:41.046Z,1698.75
2019-05-19T04:28:41.026Z,1575.00
2019-05-19T04:29:41.017Z,1760.62
2019-05-19T04:30:41.004Z,1760.62
2019-05-19T04:31:40.994Z,1693.12
2019-05-19T04:32:41.006Z,1603.12
2019-05-19T04:33:40.973Z,1771.88
2019-05-19T04:34:40.961Z,1777.50
2019-05-19T04:35:40.956Z,1833.75
2019-05-19T04:36:40.940Z,1906.88
2019-05-19T04:37:40.933Z,1743.75
2019-05-19T04:38:40.935Z,1895.62
2019-05-19T04:39:40.911Z,1563.75
2019-05-19T04:40:40.897Z,1501.88
2019-05-19T04:41:40.888Z,1507.50
2019-05-19T04:42:40.878Z,1811.25
2019-05-19T04:43:40.891Z,1974.38
2019-05-19T04:44:40.855Z,2013.75
2019-05-19T04:45:40.848Z,2143.12
2019-05-19T04:46:40.834Z,1901.25
2019-05-19T04:47:40.826Z,1878.75
2019-05-19T04:48:40.819Z,2098.12
2019-05-19T04:49:40.803Z,2216.25
2019-05-19T04:50:40.792Z,2373.75
2019-05-19T04:51:40.797Z,2165.62
2019-05-19T04:52:40.771Z,2058.75
2019-05-19T04:53:40.767Z,1732.50
2019-05-19T04:54:40.747Z,1563.75
2019-05-19T04:55:40.742Z,2047.50
2019-05-19T04:56:40.726Z,2542.50
2019-05-19T04:57:40.717Z,2311.88
2019-05-19T04:58:40.715Z,2244.38
2019-05-19T04:59:40.695Z,2424.38
2019-05-19T05:00:40.691Z,2520.00
2019-05-19T05:01:40.682Z,2266.88
2019-05-19T05:02:40.672Z,2463.75
2019-05-19T05:03:40.664Z,2700.00
2019-05-19T05:04:40.655Z,2722.50
2019-05-19T05:05:40.635Z,2446.88
2019-05-19T05:06:40.623Z,1856.25
2019-05-19T05:07:40.620Z,1530.00
2019-05-19T05:08:40.614Z,1726.88
2019-05-19T05:09:40.591Z,1704.38
2019-05-19T05:10:40.580Z,1985.62
2019-05-19T05:11:40.569Z,2272.50
2019-05-19T05:12:40.559Z,2137.50
2019-05-19T05:13:40.561Z,1681.88
2019-05-19T05:14:40.538Z,1530.00
2019-05-19T05:15:40.527Z,1293.75
2019-05-19T05:16:40.552Z,1029.38
2019-05-19T05:17:40.518Z,759.38
2019-05-19T05:18:40.504Z,658.12
2019-05-19T05:19:40.528Z,613.12
2019-05-19T05:20:40.476Z,579.38
2019-05-19T05:21:40.465Z,585.00
2019-05-19T05:22:40.458Z,618.75
2019-05-19T05:23:40.453Z,703.12
2019-05-19T05:24:40.434Z,736.88
2019-05-19T05:25:40.423Z,815.62
2019-05-19T05:26:40.427Z,894.38
2019-05-19T05:27:40.401Z,888.75
2019-05-19T05:28:40.399Z,900.00
2019-05-19T05:29:40.380Z,1170.00
2019-05-19T05:30:40.373Z,1018.12
2019-05-19T05:31:40.358Z,1203.75
2019-05-19T05:32:40.350Z,1451.25
2019-05-19T05:33:40.346Z,973.12
2019-05-19T05:34:40.327Z,1085.62
2019-05-19T05:35:40.316Z,1226.25
2019-05-19T05:36:40.305Z,1288.12
2019-05-19T05:37:40.296Z,1305.00
2019-05-19T05:38:40.297Z,1299.38
2019-05-19T05:39:40.272Z,1344.38
2019-05-19T05:40:40.262Z,1473.75
2019-05-19T05:41:40.254Z,2306.25
2019-05-19T05:42:40.257Z,2525.62
2019-05-19T05:43:40.241Z,1501.88
2019-05-19T05:44:40.222Z,978.75
2019-05-19T05:45:40.211Z,500.62
2019-05-19T05:46:40.202Z,511.88
2019-05-19T05:47:40.187Z,568.12
2019-05-19T05:48:40.214Z,793.12
2019-05-19T05:49:40.168Z,804.38
2019-05-19T05:50:40.157Z,967.50
2019-05-19T05:51:40.147Z,1620.00
2019-05-19T05:52:40.136Z,1676.25
2019-05-19T05:53:40.124Z,1580.62
2019-05-19T05:54:40.121Z,967.50
2019-05-19T05:55:40.103Z,1035.00
2019-05-19T05:56:40.091Z,922.50
2019-05-19T05:57:40.091Z,753.75
2019-05-19T05:58:40.070Z,804.38
2019-05-19T05:59:40.069Z,888.75
2019-05-19T06:00:40.052Z,1108.12
2019-05-19T06:01:40.044Z,1153.12
2019-05-19T06:02:40.029Z,1468.12
2019-05-19T06:03:40.018Z,1226.25
2019-05-19T06:04:40.015Z,1237.50
2019-05-19T06:05:40.000Z,1603.12
2019-05-19T06:06:39.987Z,1951.88
2019-05-19T06:07:39.976Z,2261.25
2019-05-19T06:08:39.969Z,2739.38
2019-05-19T06:09:39.967Z,2835.00
2019-05-19T06:10:39.945Z,3054.38
2019-05-19T06:11:39.936Z,3211.88
2019-05-19T06:12:39.923Z,3948.75
2019-05-19T06:13:39.914Z,4246.88
2019-05-19T06:14:39.912Z,4207.50
2019-05-19T06:15:39.891Z,4201.88
2019-05-19T06:16:39.881Z,4190.62
2019-05-19T06:17:39.872Z,4246.88
2019-05-19T06:18:39.863Z,4348.12
2019-05-19T06:19:39.869Z,2908.12
2019-05-19T06:20:39.841Z,3830.62
2019-05-19T06:21:39.831Z,4483.12
2019-05-19T06:22:55.121Z,3853.12
2019-05-19T06:23:40.811Z,3751.88
2019-05-19T06:24:39.815Z,3909.38
2019-05-19T06:25:39.793Z,4258.12
2019-05-19T06:26:39.785Z,4291.88
2019-05-19T06:27:39.773Z,2632.50
2019-05-19T06:28:39.762Z,1968.75
2019-05-19T06:29:39.772Z,4016.25
2019-05-19T06:30:39.742Z,4291.88
2019-05-19T06:31:39.735Z,4483.12
2019-05-19T06:32:39.722Z,4297.50
2019-05-19T06:33:39.712Z,4623.75
2019-05-19T06:34:39.716Z,4815.00
2019-05-19T06:35:39.694Z,4325.62
2019-05-19T06:36:39.683Z,4089.38
2019-05-19T06:37:39.673Z,4168.12
2019-05-19T06:38:39.678Z,4325.62
2019-05-19T06:39:39.661Z,4590.00
2019-05-19T06:40:39.644Z,4573.12
2019-05-19T06:41:39.634Z,4449.38
2019-05-19T06:42:39.623Z,4584.38
2019-05-19T06:43:39.636Z,4657.50
2019-05-19T06:44:39.615Z,4522.50
2019-05-19T06:45:39.596Z,4376.25
2019-05-19T06:46:39.587Z,4123.12
2019-05-19T06:47:39.576Z,4449.38
2019-05-19T06:48:39.569Z,4387.50
2019-05-19T06:49:39.563Z,3099.38
2019-05-19T06:50:40.722Z,1389.38
2019-05-19T06:51:39.533Z,669.38
2019-05-19T06:52:39.523Z,624.38
2019-05-19T06:53:39.512Z,607.50
2019-05-19T06:54:39.511Z,601.88
2019-05-19T06:55:39.491Z,590.62
2019-05-19T06:56:39.481Z,585.00
2019-05-19T06:57:39.474Z,585.00
2019-05-19T06:58:39.460Z,579.38
2019-05-19T06:59:39.461Z,568.12
2019-05-19T07:00:39.444Z,562.50
2019-05-19T07:01:39.433Z,534.38
2019-05-19T07:02:39.421Z,534.38
2019-05-19T07:03:39.410Z,540.00
2019-05-19T07:04:39.450Z,534.38
2019-05-19T07:05:39.393Z,528.75
2019-05-19T07:06:39.397Z,523.12
2019-05-19T07:07:39.370Z,517.50
2019-05-19T07:08:39.359Z,506.25
2019-05-19T07:09:39.351Z,500.62
2019-05-19T07:10:39.347Z,495.00
2019-05-19T07:11:39.328Z,495.00
2019-05-19T07:12:39.319Z,489.38
2019-05-19T07:13:39.307Z,483.75
2019-05-19T07:14:39.296Z,478.12
2019-05-19T07:15:39.295Z,472.50
2019-05-19T07:16:39.277Z,466.88
2019-05-19T07:17:39.265Z,461.25
2019-05-19T07:18:39.270Z,455.62
2019-05-19T07:19:39.246Z,450.00
2019-05-19T07:20:39.250Z,450.00
2019-05-19T07:21:39.224Z,444.38
2019-05-19T07:22:39.216Z,438.75
2019-05-19T07:23:39.205Z,438.75
2019-05-19T07:24:39.195Z,438.75
2019-05-19T07:25:39.191Z,433.12
2019-05-19T07:26:39.172Z,433.12
2019-05-19T07:27:39.161Z,433.12
2019-05-19T07:28:39.152Z,433.12
2019-05-19T07:29:39.142Z,433.12
2019-05-19T07:30:39.143Z,433.12
2019-05-19T07:31:39.121Z,433.12
2019-05-19T07:32:39.112Z,433.12
2019-05-19T07:33:39.101Z,433.12
2019-05-19T07:34:39.090Z,433.12
2019-05-19T07:35:39.087Z,433.12
2019-05-19T07:36:39.069Z,433.12
2019-05-19T07:37:39.060Z,433.12
2019-05-19T07:38:39.046Z,433.12
2019-05-19T07:39:39.050Z,433.12
2019-05-19T07:40:39.033Z,427.50
2019-05-19T07:41:39.013Z,427.50
2019-05-19T07:42:39.045Z,433.12
2019-05-19T07:43:38.997Z,427.50
2019-05-19T07:44:38.984Z,421.88
2019-05-19T07:45:38.979Z,421.88
2019-05-19T07:46:38.964Z,421.88
2019-05-19T07:47:38.953Z,416.25
2019-05-19T07:48:38.942Z,421.88
2019-05-19T07:49:38.928Z,416.25
2019-05-19T07:50:38.926Z,416.25
2019-05-19T07:51:38.913Z,416.25
2019-05-19T07:52:38.901Z,416.25
2019-05-19T07:53:42.976Z,416.25
2019-05-19T07:54:38.874Z,421.88
2019-05-19T07:55:38.876Z,433.12
2019-05-19T07:56:38.857Z,461.25
2019-05-19T07:57:38.841Z,427.50
2019-05-19T07:58:38.831Z,421.88
2019-05-19T07:59:38.819Z,416.25
2019-05-19T08:00:38.816Z,410.62
2019-05-19T08:01:38.798Z,410.62
2019-05-19T08:02:38.866Z,410.62
2019-05-19T08:03:38.778Z,410.62
2019-05-19T08:04:38.765Z,416.25
2019-05-19T08:05:38.771Z,421.88
2019-05-19T08:06:38.747Z,427.50
2019-05-19T08:07:38.763Z,438.75
2019-05-19T08:08:38.722Z,455.62
2019-05-19T08:09:38.714Z,472.50
2019-05-19T08:10:38.712Z,483.75
2019-05-19T08:11:38.692Z,511.88
2019-05-19T08:12:38.685Z,495.00
2019-05-19T08:13:38.672Z,444.38
2019-05-19T08:14:38.661Z,528.75
2019-05-19T08:15:38.657Z,461.25
2019-05-19T08:16:38.638Z,455.62
2019-05-19T08:17:38.632Z,466.88
2019-05-19T08:18:38.621Z,534.38
2019-05-19T08:19:38.607Z,506.25
2019-05-19T08:20:38.897Z,517.50
2019-05-19T08:21:38.583Z,500.62
2019-05-19T08:22:38.587Z,466.88
2019-05-19T08:23:38.563Z,450.00
2019-05-19T08:24:38.559Z,421.88
2019-05-19T08:25:38.541Z,421.88
2019-05-19T08:26:38.562Z,427.50
2019-05-19T08:27:38.550Z,438.75
2019-05-19T08:28:38.541Z,450.00
2019-05-19T08:29:38.536Z,461.25
2019-05-19T08:30:38.491Z,461.25
2019-05-19T08:31:38.485Z,438.75
2019-05-19T08:32:38.467Z,416.25
2019-05-19T08:33:38.467Z,399.38
2019-05-19T08:34:38.445Z,376.88
2019-05-19T08:35:38.435Z,393.75
2019-05-19T08:36:38.433Z,382.50
2019-05-19T08:37:38.415Z,376.88
2019-05-19T08:38:38.407Z,376.88
2019-05-19T08:39:38.396Z,371.25
2019-05-19T08:40:38.383Z,371.25
2019-05-19T08:41:38.379Z,365.62
2019-05-19T08:42:38.360Z,360.00
2019-05-19T08:43:38.349Z,354.38
2019-05-19T08:44:38.345Z,354.38
2019-05-19T08:45:38.330Z,348.75
2019-05-19T08:46:38.328Z,348.75
2019-05-19T08:47:38.314Z,348.75
2019-05-19T08:48:38.298Z,348.75
2019-05-19T08:49:38.289Z,354.38
2019-05-19T08:50:38.276Z,354.38
2019-05-19T08:51:38.276Z,354.38
2019-05-19T08:52:38.259Z,354.38
2019-05-19T08:53:38.249Z,354.38
2019-05-19T08:54:38.236Z,354.38
2019-05-19T08:55:38.225Z,354.38
2019-05-19T08:56:38.222Z,360.00
2019-05-19T08:57:38.203Z,360.00
2019-05-19T08:58:38.195Z,360.00
2019-05-19T08:59:38.187Z,360.00
2019-05-19T09:00:38.636Z,360.00
2019-05-19T09:01:38.172Z,360.00
2019-05-19T09:02:38.152Z,365.62
2019-05-19T09:03:38.143Z,365.62
2019-05-19T09:04:38.136Z,365.62
2019-05-19T09:05:38.124Z,365.62
2019-05-19T09:06:38.117Z,365.62
2019-05-19T09:07:38.099Z,365.62
2019-05-19T09:08:38.092Z,365.62
2019-05-19T09:09:38.081Z,371.25
2019-05-19T09:10:38.072Z,376.88
2019-05-19T09:11:38.068Z,376.88
2019-05-19T09:12:38.046Z,376.88
2019-05-19T09:13:38.035Z,376.88
2019-05-19T09:14:38.026Z,376.88
2019-05-19T09:15:38.013Z,371.25
2019-05-19T09:16:38.014Z,371.25
2019-05-19T09:17:37.997Z,365.62
2019-05-19T09:18:37.987Z,354.38
2019-05-19T09:19:37.972Z,343.12
2019-05-19T09:20:37.963Z,382.50
2019-05-19T09:21:37.962Z,382.50
2019-05-19T09:22:37.940Z,371.25
2019-05-19T09:23:37.930Z,376.88
2019-05-19T09:24:37.922Z,371.25
2019-05-19T09:25:37.910Z,371.25
2019-05-19T09:26:37.910Z,376.88
2019-05-19T09:27:37.949Z,376.88
2019-05-19T09:28:37.880Z,376.88
2019-05-19T09:29:37.869Z,376.88
2019-05-19T09:30:37.857Z,376.88
2019-05-19T09:31:41.101Z,376.88
2019-05-19T09:32:37.848Z,376.88
2019-05-19T09:33:37.825Z,376.88
2019-05-19T09:34:37.817Z,343.12
2019-05-19T09:35:37.806Z,371.25
2019-05-19T09:36:37.794Z,371.25
2019-05-19T09:37:37.800Z,365.62
2019-05-19T09:38:37.773Z,365.62
2019-05-19T09:39:37.762Z,365.62
2019-05-19T09:40:37.755Z,360.00
2019-05-19T09:41:37.743Z,360.00
2019-05-19T09:42:37.750Z,360.00
2019-05-19T09:43:37.721Z,365.62
2019-05-19T09:44:37.728Z,360.00
2019-05-19T09:45:37.699Z,360.00
2019-05-19T09:46:37.691Z,360.00
2019-05-19T09:47:37.921Z,365.62
2019-05-19T09:48:37.668Z,365.62
2019-05-19T09:49:37.657Z,365.62
2019-05-19T09:50:37.648Z,371.25
2019-05-19T09:51:37.638Z,376.88
2019-05-19T09:52:37.636Z,371.25
2019-05-19T09:53:37.613Z,371.25
2019-05-19T09:54:45.214Z,365.62
2019-05-19T09:55:38.593Z,365.62
2019-05-19T09:56:37.587Z,365.62
2019-05-19T09:57:37.727Z,360.00
2019-05-19T09:58:37.560Z,360.00
2019-05-19T09:59:37.549Z,354.38
2019-05-19T10:00:37.539Z,354.38
2019-05-19T10:01:37.528Z,354.38
2019-05-19T10:02:37.527Z,354.38
2019-05-19T10:03:37.509Z,360.00
2019-05-19T10:04:37.499Z,354.38
2019-05-19T10:05:37.505Z,354.38
2019-05-19T10:06:37.479Z,354.38
2019-05-19T10:07:37.478Z,354.38
2019-05-19T10:08:37.453Z,354.38
2019-05-19T10:09:37.448Z,354.38
2019-05-19T10:10:37.433Z,348.75
2019-05-19T10:11:37.424Z,354.38
2019-05-19T10:12:37.421Z,343.12
2019-05-19T10:13:37.941Z,343.12
2019-05-19T10:14:37.394Z,343.12
2019-05-19T10:15:37.381Z,343.12
2019-05-19T10:16:37.451Z,337.50
2019-05-19T10:17:37.371Z,348.75
2019-05-19T10:18:37.353Z,337.50
2019-05-19T10:19:37.340Z,337.50
2019-05-19T10:20:37.328Z,337.50
2019-05-19T10:21:37.320Z,337.50
2019-05-19T10:22:37.315Z,337.50
2019-05-19T10:23:37.297Z,337.50
2019-05-19T10:24:37.286Z,337.50
2019-05-19T10:25:37.277Z,337.50
2019-05-19T10:26:37.266Z,337.50
2019-05-19T10:27:37.265Z,337.50
2019-05-19T10:28:37.245Z,337.50
2019-05-19T10:29:37.234Z,337.50
2019-05-19T10:30:37.229Z,337.50
2019-05-19T10:31:37.215Z,331.88
2019-05-19T10:32:37.214Z,331.88
2019-05-19T10:33:37.196Z,331.88
2019-05-19T10:34:37.184Z,331.88
2019-05-19T10:35:37.222Z,331.88
2019-05-19T10:36:37.161Z,331.88
2019-05-19T10:37:37.230Z,331.88
2019-05-19T10:38:37.142Z,331.88
2019-05-19T10:39:37.129Z,331.88
2019-05-19T10:40:37.120Z,331.88
2019-05-19T10:41:37.122Z,331.88
2019-05-19T10:42:37.131Z,326.25
2019-05-19T10:43:37.090Z,326.25
2019-05-19T10:44:37.077Z,326.25
2019-05-19T10:45:37.066Z,326.25
2019-05-19T10:46:37.056Z,326.25
2019-05-19T10:47:37.044Z,326.25
2019-05-19T10:48:37.042Z,326.25
2019-05-19T10:49:37.028Z,326.25
2019-05-19T10:50:37.013Z,326.25
2019-05-19T10:51:37.004Z,326.25
2019-05-19T10:52:36.994Z,331.88
2019-05-19T10:53:36.998Z,326.25
2019-05-19T10:54:36.972Z,326.25
2019-05-19T10:55:37.220Z,320.62
2019-05-19T10:56:36.950Z,264.38
2019-05-19T10:57:36.944Z,331.88
2019-05-19T10:58:36.937Z,331.88
2019-05-19T10:59:36.921Z,337.50
2019-05-19T11:00:36.908Z,337.50
2019-05-19T11:01:36.900Z,331.88
2019-05-19T11:02:36.888Z,331.88
2019-05-19T11:03:36.887Z,315.00
2019-05-19T11:04:36.867Z,326.25
2019-05-19T11:05:36.855Z,337.50
2019-05-19T11:06:36.848Z,331.88
2019-05-19T11:07:36.840Z,337.50
2019-05-19T11:08:36.835Z,337.50
2019-05-19T11:09:36.819Z,331.88
2019-05-19T11:10:36.801Z,331.88
2019-05-19T11:11:36.789Z,337.50
2019-05-19T11:12:36.783Z,337.50
2019-05-19T11:13:36.776Z,343.12
2019-05-19T11:14:36.768Z,343.12
2019-05-19T11:15:36.746Z,343.12
2019-05-19T11:16:36.737Z,337.50
2019-05-19T11:17:36.728Z,331.88
2019-05-19T11:18:36.727Z,331.88
2019-05-19T11:19:36.708Z,331.88
2019-05-19T11:20:36.693Z,337.50
2019-05-19T11:21:36.682Z,331.88
2019-05-19T11:22:36.672Z,337.50
2019-05-19T11:23:36.671Z,348.75
2019-05-19T11:24:36.657Z,343.12
2019-05-19T11:25:50.587Z,343.12
2019-05-19T11:26:37.628Z,354.38
2019-05-19T11:27:36.618Z,354.38
2019-05-19T11:28:36.617Z,360.00
2019-05-19T11:29:36.604Z,360.00
2019-05-19T11:30:36.587Z,365.62
2019-05-19T11:31:36.575Z,365.62
2019-05-19T11:32:36.565Z,360.00
2019-05-19T11:33:36.563Z,365.62
2019-05-19T11:34:36.545Z,365.62
2019-05-19T11:35:36.534Z,365.62
2019-05-19T11:36:36.524Z,360.00
2019-05-19T11:37:36.514Z,331.88
2019-05-19T11:38:36.507Z,348.75
2019-05-19T11:39:36.492Z,348.75
2019-05-19T11:40:36.479Z,348.75
2019-05-19T11:41:36.467Z,348.75
2019-05-19T11:42:36.459Z,303.75
2019-05-19T11:43:36.456Z,348.75
2019-05-19T11:44:36.435Z,348.75
2019-05-19T11:45:36.425Z,343.12
2019-05-19T11:46:36.414Z,343.12
2019-05-19T11:47:36.409Z,348.75
2019-05-19T11:48:36.400Z,354.38
2019-05-19T11:49:36.382Z,354.38
2019-05-19T11:50:36.371Z,348.75
2019-05-19T11:51:36.362Z,337.50
2019-05-19T11:52:36.350Z,337.50
2019-05-19T11:53:36.350Z,331.88
2019-05-19T11:54:36.329Z,337.50
2019-05-19T11:55:36.317Z,343.12
2019-05-19T11:56:36.308Z,348.75
2019-05-19T11:57:36.300Z,348.75
2019-05-19T11:58:36.322Z,236.25
2019-05-19T11:59:36.275Z,337.50
2019-05-19T12:00:36.276Z,331.88
2019-05-19T12:01:36.256Z,343.12
2019-05-19T12:02:36.252Z,343.12
2019-05-19T12:03:36.234Z,337.50
2019-05-19T12:04:36.351Z,331.88
2019-05-19T12:05:36.213Z,331.88
2019-05-19T12:06:39.816Z,331.88
2019-05-19T12:07:36.193Z,315.00
2019-05-19T12:08:36.179Z,337.50
2019-05-19T12:09:36.178Z,331.88
2019-05-19T12:10:36.159Z,331.88
2019-05-19T12:11:36.149Z,337.50
2019-05-19T12:12:36.154Z,320.62
2019-05-19T12:13:36.127Z,331.88
2019-05-19T12:14:36.126Z,326.25
2019-05-19T12:15:36.103Z,326.25
2019-05-19T12:16:36.095Z,331.88
2019-05-19T12:17:36.087Z,331.88
2019-05-19T12:18:36.077Z,337.50
2019-05-19T12:19:36.070Z,286.88
2019-05-19T12:20:36.058Z,191.25
2019-05-19T12:21:36.042Z,185.62
2019-05-19T12:22:36.029Z,180.00
2019-05-19T12:23:36.031Z,185.62
2019-05-19T12:24:36.017Z,253.12
2019-05-19T12:25:35.997Z,331.88
2019-05-19T12:26:35.988Z,331.88
2019-05-19T12:27:35.976Z,331.88
2019-05-19T12:28:35.972Z,191.25
2019-05-19T12:29:35.963Z,337.50
2019-05-19T12:30:35.946Z,337.50
2019-05-19T12:31:35.935Z,337.50
2019-05-19T12:32:35.937Z,337.50
2019-05-19T12:33:50.788Z,331.88
2019-05-19T12:34:36.911Z,191.25
2019-05-19T12:35:35.889Z,180.00
2019-05-19T12:36:35.880Z,180.00